Time;durP1;ratioP1;P1;durP2;ratioP2;P2;SDS_P1;SDS_P2;PMS_P1;PMS_P2;Temp;Humidity;BMP_temperature;BMP_pressure;BME280_temperature;BME280_humidity;BME280_pressure;Samples;Min_cycle;Max_cycle;Signal;HPM_P1;HPM_P2
2024/01/12 00:02:14;;;;;;;;;;;22.40;30.50;;;;;;5071315;28;20005;-68
2024/01/12 00:04:40;;;;;;;;;;;22.90;30.10;;;;;;5071255;28;19920;-69
2024/01/12 00:07:05;;;;;;;;;;;23.20;29.80;;;;;;5071028;28;19943;-68
2024/01/12 00:09:31;;;;;;;;;;;23.50;29.50;;;;;;5071203;28;19920;-68
2024/01/12 00:11:56;;;;;;;;;;;23.80;29.40;;;;;;5070798;28;20355;-68
2024/01/12 00:14:22;;;;;;;;;;;24.00;29.20;;;;;;5070830;28;19920;-68
2024/01/12 00:16:48;;;;;;;;;;;24.10;29.00;;;;;;5070848;28;19986;-69
2024/01/12 00:19:14;;;;;;;;;;;24.30;28.80;;;;;;5072086;28;20011;-69
2024/01/12 00:21:43;;;;;;;;;;;24.40;28.70;;;;;;5071809;28;20007;-68
2024/01/12 00:24:09;;;;;;;;;;;24.60;28.70;;;;;;5071011;28;20011;-68
2024/01/12 00:26:35;;;;;;;;;;;24.70;28.60;;;;;;5071135;28;20427;-68
2024/01/12 00:29:00;;;;;;;;;;;24.80;28.50;;;;;;5070906;28;20284;-68
2024/01/12 00:31:26;;;;;;;;;;;24.80;28.40;;;;;;5071128;28;20360;-69
2024/01/12 00:33:55;;;;;;;;;;;25.00;28.30;;;;;;5070572;28;19931;-69
2024/01/12 00:36:20;;;;;;;;;;;25.00;28.30;;;;;;5070510;28;19965;-68
2024/01/12 00:38:46;;;;;;;;;;;25.00;28.20;;;;;;5070838;28;19974;-68
2024/01/12 00:41:11;;;;;;;;;;;25.10;28.20;;;;;;5070651;28;19965;-68
2024/01/12 00:43:40;;;;;;;;;;;25.20;28.20;;;;;;5070510;28;20323;-68
2024/01/12 00:46:05;;;;;;;;;;;25.20;28.20;;;;;;5070521;28;19927;-69
2024/01/12 00:48:31;;;;;;;;;;;25.20;28.10;;;;;;5071472;28;19920;-68
2024/01/12 00:50:56;;;;;;;;;;;25.20;28.10;;;;;;5071609;28;20394;-68
2024/01/12 00:53:22;;;;;;;;;;;25.30;28.10;;;;;;5071079;28;19925;-69
2024/01/12 00:55:48;;;;;;;;;;;25.30;28.10;;;;;;5071708;28;19921;-69
2024/01/12 00:58:14;;;;;;;;;;;25.40;28.10;;;;;;5071665;28;19924;-68
2024/01/12 01:00:39;;;;;;;;;;;25.50;28.00;;;;;;5072769;28;19970;-68
2024/01/12 01:03:08;;;;;;;;;;;25.50;28.00;;;;;;5074279;28;20128;-68
2024/01/12 01:05:33;;;;;;;;;;;25.60;28.00;;;;;;5074286;28;19975;-69
2024/01/12 01:07:59;;;;;;;;;;;25.60;27.90;;;;;;5075083;28;19976;-68
2024/01/12 01:10:24;;;;;;;;;;;25.60;27.90;;;;;;5073792;28;19982;-68
2024/01/12 01:12:53;;;;;;;;;;;25.60;27.90;;;;;;5075056;28;19924;-68
2024/01/12 01:15:19;;;;;;;;;;;25.60;27.90;;;;;;5073999;28;20010;-69
2024/01/12 01:17:45;;;;;;;;;;;25.60;27.90;;;;;;5073699;28;19928;-69
2024/01/12 01:20:11;;;;;;;;;;;25.60;27.90;;;;;;5073905;28;19921;-68
2024/01/12 01:22:37;;;;;;;;;;;25.70;28.00;;;;;;5074906;28;19956;-68
2024/01/12 01:25:02;;;;;;;;;;;25.70;27.80;;;;;;5075129;28;19921;-68
2024/01/12 01:27:28;;;;;;;;;;;25.80;28.50;;;;;;5073823;28;20042;-68
2024/01/12 01:29:53;;;;;;;;;;;25.80;27.80;;;;;;5073501;28;19920;-68
2024/01/12 01:32:19;;;;;;;;;;;25.80;27.80;;;;;;5073341;28;19976;-69
2024/01/12 01:34:44;;;;;;;;;;;25.80;27.80;;;;;;5073622;28;20058;-68
2024/01/12 01:37:13;;;;;;;;;;;25.90;27.80;;;;;;5073852;28;19920;-68
2024/01/12 01:39:39;;;;;;;;;;;25.90;27.80;;;;;;5074040;28;20011;-68
2024/01/12 01:42:05;;;;;;;;;;;25.90;27.80;;;;;;5073421;28;20347;-68
2024/01/12 01:44:30;;;;;;;;;;;25.90;27.70;;;;;;5073517;28;19920;-70
2024/01/12 01:46:57;;;;;;;;;;;25.90;27.80;;;;;;5073785;28;19927;-69
2024/01/12 01:49:24;;;;;;;;;;;26.00;27.80;;;;;;5073150;28;19920;-68
2024/01/12 01:51:50;;;;;;;;;;;26.00;27.80;;;;;;5074153;28;19924;-68
2024/01/12 01:54:17;;;;;;;;;;;26.00;27.70;;;;;;5073608;28;19924;-70
2024/01/12 01:56:43;;;;;;;;;;;26.00;27.70;;;;;;5074460;28;19920;-68
2024/01/12 01:59:12;;;;;;;;;;;26.10;27.80;;;;;;5073528;28;20287;-68
2024/01/12 02:01:38;;;;;;;;;;;26.10;27.80;;;;;;5073128;28;19920;-68
2024/01/12 02:04:04;;;;;;;;;;;26.10;27.70;;;;;;5072879;28;20340;-68
2024/01/12 02:06:29;;;;;;;;;;;26.20;27.70;;;;;;5072730;28;19969;-68
2024/01/12 02:08:59;;;;;;;;;;;26.20;27.70;;;;;;5073102;28;20583;-68
2024/01/12 02:11:24;;;;;;;;;;;26.20;27.70;;;;;;5072593;28;20011;-69
2024/01/12 02:13:50;;;;;;;;;;;26.20;27.60;;;;;;5072528;28;20016;-69
2024/01/12 02:16:17;;;;;;;;;;;26.20;27.60;;;;;;5072862;28;19924;-69
2024/01/12 02:18:43;;;;;;;;;;;26.20;27.60;;;;;;5072563;28;19926;-69
2024/01/12 02:21:11;;;;;;;;;;;26.30;27.70;;;;;;5072721;28;19924;-68
2024/01/12 02:23:37;;;;;;;;;;;26.30;27.70;;;;;;5072707;28;20306;-68
2024/01/12 02:26:03;;;;;;;;;;;26.30;27.70;;;;;;5073640;28;19920;-70
2024/01/12 02:28:28;;;;;;;;;;;26.30;27.70;;;;;;5072776;28;19928;-69
2024/01/12 02:30:54;;;;;;;;;;;26.30;27.60;;;;;;5072517;28;19925;-68
2024/01/12 02:33:20;;;;;;;;;;;26.40;27.70;;;;;;5073455;28;20364;-68
2024/01/12 02:35:45;;;;;;;;;;;26.40;27.70;;;;;;5073533;28;19932;-68
2024/01/12 02:38:11;;;;;;;;;;;26.40;27.60;;;;;;5072323;28;19983;-68
2024/01/12 02:40:36;;;;;;;;;;;26.40;27.70;;;;;;5072129;28;19920;-68
2024/01/12 02:43:02;;;;;;;;;;;26.40;27.60;;;;;;5072280;28;19920;-68
2024/01/12 02:45:28;;;;;;;;;;;26.40;27.60;;;;;;5072034;28;19958;-69
2024/01/12 02:47:53;;;;;;;;;;;26.40;27.60;;;;;;5073284;28;19920;-69
2024/01/12 02:50:19;;;;;;;;;;;26.40;27.60;;;;;;5072255;28;19920;-69
2024/01/12 02:52:45;;;;;;;;;;;26.40;27.60;;;;;;5074769;28;19928;-68
2024/01/12 02:55:10;;;;;;;;;;;26.40;27.60;;;;;;5075093;28;19924;-68
2024/01/12 02:57:36;;;;;;;;;;;26.40;27.70;;;;;;5075048;28;19920;-69
2024/01/12 03:00:01;;;;;;;;;;;26.40;27.70;;;;;;5075391;28;20027;-68
2024/01/12 03:02:30;;;;;;;;;;;26.40;27.70;;;;;;5074998;28;19958;-69
2024/01/12 03:04:55;;;;;;;;;;;26.40;27.60;;;;;;5074994;28;19927;-68
2024/01/12 03:07:21;;;;;;;;;;;26.40;27.60;;;;;;5074954;28;19921;-69
2024/01/12 03:09:46;;;;;;;;;;;26.50;27.70;;;;;;5075366;28;20295;-70
2024/01/12 03:12:12;;;;;;;;;;;26.50;27.70;;;;;;5074723;28;20386;-68
2024/01/12 03:14:38;;;;;;;;;;;26.60;27.60;;;;;;5075132;28;19927;-68
2024/01/12 03:17:03;;;;;;;;;;;26.60;27.50;;;;;;5074810;28;19920;-69
2024/01/12 03:19:29;;;;;;;;;;;26.70;27.60;;;;;;5074973;28;19928;-70
2024/01/12 03:21:54;;;;;;;;;;;26.60;27.60;;;;;;5074843;28;20363;-68
2024/01/12 03:24:20;;;;;;;;;;;26.60;27.50;;;;;;5074730;28;20371;-68
2024/01/12 03:26:46;;;;;;;;;;;26.70;27.60;;;;;;5092818;28;19973;-69
2024/01/12 03:29:12;;;;;;;;;;;26.70;27.50;;;;;;5074832;28;19969;-68
2024/01/12 03:31:38;;;;;;;;;;;26.70;27.60;;;;;;5074606;28;20341;-68
2024/01/12 03:34:03;;;;;;;;;;;26.70;27.50;;;;;;5092624;28;19931;-71
2024/01/12 03:36:29;;;;;;;;;;;26.70;27.60;;;;;;5074907;28;20207;-70
2024/01/12 03:38:54;;;;;;;;;;;26.70;28.20;;;;;;5074427;28;19924;-68
2024/01/12 03:41:20;;;;;;;;;;;26.70;27.50;;;;;;5074720;28;19924;-68
2024/01/12 03:43:46;;;;;;;;;;;26.80;27.60;;;;;;5074426;28;19990;-69
2024/01/12 03:46:11;;;;;;;;;;;26.80;27.50;;;;;;5092660;28;19920;-68
2024/01/12 03:48:39;;;;;;;;;;;26.80;27.50;;;;;;5092490;28;19924;-68
2024/01/12 03:51:04;;;;;;;;;;;26.80;27.50;;;;;;5092526;28;19924;-68
2024/01/12 03:53:30;;;;;;;;;;;26.80;27.60;;;;;;5074294;28;20390;-68
2024/01/12 03:55:55;;;;;;;;;;;26.80;27.50;;;;;;5092348;28;19927;-68
2024/01/12 03:58:21;;;;;;;;;;;26.90;27.60;;;;;;5074633;28;19924;-69
2024/01/12 04:00:46;;;;;;;;;;;26.90;27.60;;;;;;5074138;28;20402;-69
2024/01/12 04:03:12;;;;;;;;;;;26.90;27.50;;;;;;5074638;28;19920;-68
2024/01/12 04:05:37;;;;;;;;;;;26.90;27.50;;;;;;5074226;28;20293;-68
2024/01/12 04:08:03;;;;;;;;;;;26.90;27.50;;;;;;5074293;28;19920;-68
2024/01/12 04:10:29;;;;;;;;;;;26.90;27.50;;;;;;5074431;28;19920;-68
2024/01/12 04:12:54;;;;;;;;;;;26.90;27.50;;;;;;5074287;28;20371;-68
2024/01/12 04:15:20;;;;;;;;;;;26.90;27.50;;;;;;5074105;28;19920;-68
2024/01/12 04:17:45;;;;;;;;;;;26.90;27.50;;;;;;5092271;28;19920;-69
2024/01/12 04:20:11;;;;;;;;;;;27.00;27.50;;;;;;5074065;28;19943;-69
2024/01/12 04:22:40;;;;;;;;;;;27.00;27.50;;;;;;5074355;28;19920;-71
2024/01/12 04:25:05;;;;;;;;;;;27.00;27.60;;;;;;5092157;28;19920;-69
2024/01/12 04:27:31;;;;;;;;;;;27.00;27.60;;;;;;5092137;28;19920;-68
2024/01/12 04:29:57;;;;;;;;;;;27.00;27.60;;;;;;5074479;28;20371;-68
2024/01/12 04:32:22;;;;;;;;;;;27.00;27.60;;;;;;5074206;28;19924;-69
2024/01/12 04:34:48;;;;;;;;;;;27.00;27.50;;;;;;5075363;28;20367;-68
2024/01/12 04:37:13;;;;;;;;;;;27.00;27.50;;;;;;5077806;28;19926;-68
2024/01/12 04:39:40;;;;;;;;;;;27.10;27.60;;;;;;5077815;28;19943;-68
2024/01/12 04:42:05;;;;;;;;;;;27.10;27.60;;;;;;5077905;28;19966;-68
2024/01/12 04:44:31;;;;;;;;;;;27.10;27.60;;;;;;5077665;28;20373;-68
2024/01/12 04:46:56;;;;;;;;;;;27.10;27.60;;;;;;5077821;28;19926;-68
2024/01/12 04:49:22;;;;;;;;;;;27.10;27.50;;;;;;5096051;28;19964;-69
2024/01/12 04:51:47;;;;;;;;;;;27.10;27.50;;;;;;5095540;28;20010;-68
2024/01/12 04:54:13;;;;;;;;;;;27.10;27.50;;;;;;5077438;28;20383;-70
2024/01/12 04:56:38;;;;;;;;;;;27.10;27.60;;;;;;5077304;28;19920;-68
2024/01/12 04:59:04;;;;;;;;;;;27.10;27.60;;;;;;5077707;28;19928;-68
2024/01/12 05:01:29;;;;;;;;;;;27.10;27.60;;;;;;5077694;28;20368;-68
2024/01/12 05:03:55;;;;;;;;;;;27.20;27.60;;;;;;5077641;28;20329;-68
2024/01/12 05:06:20;;;;;;;;;;;27.20;27.60;;;;;;5077228;28;19969;-68
2024/01/12 05:08:46;;;;;;;;;;;27.20;27.60;;;;;;5077190;28;19920;-68
2024/01/12 05:11:11;;;;;;;;;;;27.20;27.60;;;;;;5077164;28;20264;-70
2024/01/12 05:13:37;;;;;;;;;;;27.30;27.50;;;;;;5095220;28;19924;-69
2024/01/12 05:16:03;;;;;;;;;;;27.40;27.50;;;;;;5095360;28;20397;-69
2024/01/12 05:18:28;;;;;;;;;;;27.50;27.50;;;;;;5077238;28;19920;-69
2024/01/12 05:20:54;;;;;;;;;;;27.60;27.50;;;;;;5077137;28;19931;-68
2024/01/12 05:23:19;;;;;;;;;;;27.70;27.40;;;;;;5077690;28;19921;-68
2024/01/12 05:25:45;;;;;;;;;;;27.80;27.30;;;;;;5077111;28;19924;-68
2024/01/12 05:28:10;;;;;;;;;;;27.90;27.20;;;;;;5076823;28;19920;-68
2024/01/12 05:30:36;;;;;;;;;;;28.10;27.20;;;;;;5077124;28;20278;-68
2024/01/12 05:33:01;;;;;;;;;;;28.20;27.20;;;;;;5076631;28;19924;-69
2024/01/12 05:35:27;;;;;;;;;;;28.20;27.10;;;;;;5094912;28;19923;-68
2024/01/12 05:37:54;;;;;;;;;;;28.30;27.00;;;;;;5077020;28;19972;-68
2024/01/12 05:40:20;;;;;;;;;;;28.40;27.10;;;;;;5076612;28;19920;-68
2024/01/12 05:42:45;;;;;;;;;;;28.40;27.00;;;;;;5076538;28;19920;-68
2024/01/12 05:45:11;;;;;;;;;;;28.40;26.90;;;;;;5076218;28;19927;-68
2024/01/12 05:47:37;;;;;;;;;;;28.50;27.00;;;;;;5076763;28;20014;-68
2024/01/12 05:50:03;;;;;;;;;;;28.50;27.00;;;;;;5094779;28;20441;-70
2024/01/12 05:52:29;;;;;;;;;;;28.50;26.90;;;;;;5076210;28;19928;-68
2024/01/12 05:54:57;;;;;;;;;;;28.50;26.90;;;;;;5094519;28;20022;-68
2024/01/12 05:57:26;;;;;;;;;;;28.50;26.90;;;;;;5076847;28;20269;-69
2024/01/12 05:59:52;;;;;;;;;;;28.60;26.90;;;;;;5094375;28;20435;-68
2024/01/12 06:02:17;;;;;;;;;;;28.50;26.90;;;;;;5076600;28;19982;-68
2024/01/12 06:04:43;;;;;;;;;;;28.50;26.90;;;;;;5076447;28;19964;-69
2024/01/12 06:07:08;;;;;;;;;;;28.40;26.90;;;;;;5094421;28;20329;-69
2024/01/12 06:09:34;;;;;;;;;;;28.40;26.90;;;;;;5076150;28;19931;-69
2024/01/12 06:11:59;;;;;;;;;;;28.40;26.90;;;;;;5076299;28;19920;-68
2024/01/12 06:14:25;;;;;;;;;;;28.40;27.00;;;;;;5093967;28;20368;-69
2024/01/12 06:16:52;;;;;;;;;;;28.40;27.00;;;;;;5076298;28;19920;-69
2024/01/12 06:19:17;;;;;;;;;;;28.40;27.00;;;;;;5093921;28;19927;-69
2024/01/12 06:21:43;;;;;;;;;;;28.30;27.00;;;;;;5094141;28;19924;-71
2024/01/12 06:24:08;;;;;;;;;;;28.30;27.00;;;;;;5093870;28;19920;-69
2024/01/12 06:26:34;;;;;;;;;;;28.30;27.10;;;;;;5093883;28;19924;-69
2024/01/12 06:29:00;;;;;;;;;;;28.30;27.10;;;;;;5093827;28;19920;-69
2024/01/12 06:31:29;;;;;;;;;;;28.20;27.10;;;;;;5075575;28;19927;-68
2024/01/12 06:33:54;;;;;;;;;;;28.20;27.20;;;;;;5075506;28;19928;-70
2024/01/12 06:36:23;;;;;;;;;;;28.30;27.20;;;;;;5075953;28;19920;-68
2024/01/12 06:38:49;;;;;;;;;;;28.20;27.20;;;;;;5093731;28;19927;-68
2024/01/12 06:41:14;;;;;;;;;;;28.20;27.20;;;;;;5075366;28;20198;-71
2024/01/12 06:43:40;;;;;;;;;;;28.20;27.20;;;;;;5075760;28;19920;-68
2024/01/12 06:46:06;;;;;;;;;;;28.20;27.20;;;;;;5075470;28;19927;-68
2024/01/12 06:48:32;;;;;;;;;;;28.20;27.20;;;;;;5075779;28;19940;-69
2024/01/12 06:50:57;;;;;;;;;;;28.10;27.20;;;;;;5093411;28;20402;-71
2024/01/12 06:53:23;;;;;;;;;;;28.20;27.30;;;;;;5083758;28;20429;-72
2024/01/12 06:55:48;;;;;;;;;;;28.10;27.40;;;;;;5083053;28;19969;-71
2024/01/12 06:58:14;;;;;;;;;;;28.00;27.70;;;;;;5071180;28;19924;-68
2024/01/12 07:00:39;;;;;;;;;;;27.70;28.00;;;;;;5072948;28;20333;-68
2024/01/12 07:03:06;;;;;;;;;;;27.20;28.30;;;;;;5091061;28;20398;-68
2024/01/12 07:05:31;;;;;;;;;;;26.50;28.80;;;;;;5067291;28;21470;-68
2024/01/12 07:07:57;;;;;;;;;;;25.90;29.20;;;;;;5094234;28;19920;-68
2024/01/12 07:10:23;;;;;;;;;;;25.30;29.70;;;;;;5095226;28;19923;-68
2024/01/12 07:12:51;;;;;;;;;;;24.80;30.00;;;;;;5072437;28;19942;-68
2024/01/12 07:15:17;;;;;;;;;;;24.40;30.50;;;;;;5068749;28;19923;-68
2024/01/12 07:17:43;;;;;;;;;;;24.10;31.90;;;;;;5080575;28;19924;-68
2024/01/12 07:20:10;;;;;;;;;;;23.90;31.60;;;;;;5079155;28;19931;-68
2024/01/12 07:22:36;;;;;;;;;;;23.80;31.90;;;;;;5052547;28;19927;-68
2024/01/12 07:25:01;;;;;;;;;;;23.80;31.90;;;;;;5085771;28;19925;-68
2024/01/12 07:27:27;;;;;;;;;;;23.90;31.90;;;;;;5087190;28;19924;-68
2024/01/12 07:29:52;;;;;;;;;;;23.90;31.80;;;;;;5072201;28;19919;-68
2024/01/12 07:32:18;;;;;;;;;;;24.10;31.90;;;;;;5089725;28;19924;-68
2024/01/12 07:34:43;;;;;;;;;;;24.20;31.60;;;;;;5070486;28;19920;-68
2024/01/12 07:37:09;;;;;;;;;;;24.40;31.40;;;;;;5089719;28;19919;-69
2024/01/12 07:39:35;;;;;;;;;;;24.60;31.00;;;;;;5072088;28;19920;-69
2024/01/12 07:42:00;;;;;;;;;;;24.70;30.70;;;;;;5090294;28;20558;-69
2024/01/12 07:44:26;;;;;;;;;;;24.80;30.40;;;;;;5085912;28;19916;-69
2024/01/12 07:46:51;;;;;;;;;;;24.90;30.00;;;;;;5068873;28;19963;-67
2024/01/12 07:49:17;;;;;;;;;;;24.90;29.80;;;;;;5068770;28;20002;-68
2024/01/12 07:51:42;;;;;;;;;;;24.90;29.80;;;;;;5089113;28;19979;-68
2024/01/12 07:54:08;;;;;;;;;;;24.90;29.90;;;;;;5070743;28;20398;-68
2024/01/12 07:56:34;;;;;;;;;;;24.90;29.90;;;;;;5072455;28;20344;-68
2024/01/12 07:59:00;;;;;;;;;;;24.90;29.90;;;;;;5070199;28;19922;-68
2024/01/12 08:01:25;;;;;;;;;;;24.90;29.90;;;;;;5071599;28;19962;-68
2024/01/12 08:03:51;;;;;;;;;;;24.90;29.90;;;;;;5089785;28;20275;-68
2024/01/12 08:06:16;;;;;;;;;;;24.90;30.00;;;;;;5065714;28;19920;-68
2024/01/12 08:08:42;;;;;;;;;;;24.90;30.00;;;;;;5084785;28;19923;-68
2024/01/12 08:11:08;;;;;;;;;;;24.90;30.00;;;;;;5086191;28;19916;-68
2024/01/12 08:13:33;;;;;;;;;;;24.90;30.20;;;;;;5084083;28;20007;-69
2024/01/12 08:15:59;;;;;;;;;;;24.90;30.20;;;;;;5085600;28;20268;-69
2024/01/12 08:18:24;;;;;;;;;;;24.80;30.20;;;;;;5070303;28;19928;-69
2024/01/12 08:20:50;;;;;;;;;;;24.80;30.30;;;;;;5089735;28;19919;-68
2024/01/12 08:23:15;;;;;;;;;;;24.70;30.60;;;;;;5087087;28;19930;-68
2024/01/12 08:25:41;;;;;;;;;;;24.70;30.80;;;;;;5087335;28;20254;-69
2024/01/12 08:28:07;;;;;;;;;;;24.60;31.00;;;;;;5070349;28;20412;-68
2024/01/12 08:30:33;;;;;;;;;;;24.60;31.20;;;;;;5106459;28;20312;-68
2024/01/12 08:32:59;;;;;;;;;;;24.50;31.20;;;;;;5085845;28;20240;-69
2024/01/12 08:35:26;;;;;;;;;;;24.50;31.20;;;;;;5103897;28;19923;-69
2024/01/12 08:37:51;;;;;;;;;;;24.50;31.40;;;;;;5099191;28;19970;-69
2024/01/12 08:40:17;;;;;;;;;;;24.40;31.50;;;;;;5088339;28;19924;-68
2024/01/12 08:42:42;;;;;;;;;;;24.40;31.90;;;;;;5067010;28;20267;-69
2024/01/12 08:45:08;;;;;;;;;;;24.40;31.80;;;;;;5084543;28;19917;-69
2024/01/12 08:47:34;;;;;;;;;;;24.50;31.70;;;;;;5071699;28;19920;-69
2024/01/12 08:49:59;;;;;;;;;;;24.40;31.70;;;;;;5102859;28;20070;-69
2024/01/12 08:52:25;;;;;;;;;;;24.50;31.80;;;;;;5082679;28;19974;-69
2024/01/12 08:54:50;;;;;;;;;;;24.50;32.00;;;;;;5081031;28;19920;-69
2024/01/12 08:57:16;;;;;;;;;;;24.60;32.10;;;;;;5080723;28;19920;-72
2024/01/12 08:59:41;;;;;;;;;;;24.90;31.90;;;;;;5059803;28;19924;-71
2024/01/12 09:02:07;;;;;;;;;;;25.30;31.70;;;;;;5077359;28;20363;-70
2024/01/12 09:04:35;;;;;;;;;;;25.60;31.30;;;;;;5055522;28;20059;-72
2024/01/12 09:07:01;;;;;;;;;;;25.80;30.50;;;;;;5063812;28;19920;-69
2024/01/12 09:09:30;;;;;;;;;;;25.90;30.30;;;;;;5059562;28;19992;-69
2024/01/12 09:11:55;;;;;;;;;;;25.90;30.30;;;;;;5063708;28;19970;-71
2024/01/12 09:14:21;;;;;;;;;;;25.60;30.50;;;;;;5065702;28;19924;-72
2024/01/12 09:16:46;;;;;;;;;;;25.30;31.60;;;;;;5062978;28;20271;-74
2024/01/12 09:19:12;;;;;;;;;;;25.10;31.00;;;;;;5084123;28;20351;-73
2024/01/12 09:21:38;;;;;;;;;;;24.90;31.30;;;;;;5064801;28;19920;-72
2024/01/12 09:24:04;;;;;;;;;;;24.80;31.60;;;;;;5067463;28;19947;-72
2024/01/12 09:26:30;;;;;;;;;;;24.70;31.70;;;;;;5066192;28;19924;-72
2024/01/12 09:28:55;;;;;;;;;;;24.70;31.80;;;;;;5086019;28;19970;-72
2024/01/12 09:31:21;;;;;;;;;;;24.80;31.90;;;;;;5054285;28;20384;-73
2024/01/12 09:33:46;;;;;;;;;;;24.80;31.90;;;;;;5066896;28;20147;-74
2024/01/12 09:36:12;;;;;;;;;;;24.90;31.60;;;;;;5064560;28;20361;-73
2024/01/12 09:38:37;;;;;;;;;;;24.90;31.40;;;;;;5081644;28;19920;-73
2024/01/12 09:41:03;;;;;;;;;;;24.90;31.20;;;;;;5083108;28;19916;-71
2024/01/12 09:43:29;;;;;;;;;;;24.90;30.80;;;;;;5084802;28;20355;-72
2024/01/12 09:45:58;;;;;;;;;;;25.00;30.60;;;;;;5084898;28;20195;-73
2024/01/12 09:48:24;;;;;;;;;;;25.10;30.50;;;;;;5067798;28;19995;-73
2024/01/12 09:50:51;;;;;;;;;;;25.10;30.30;;;;;;5063344;28;19916;-75
2024/01/12 09:53:17;;;;;;;;;;;25.00;30.10;;;;;;5048749;28;19920;-76
2024/01/12 09:55:42;;;;;;;;;;;25.00;30.20;;;;;;5045586;28;20310;-71
2024/01/12 09:58:10;;;;;;;;;;;25.00;30.30;;;;;;5064556;28;19983;-74
2024/01/12 10:00:40;;;;;;;;;;;25.00;30.40;;;;;;5063440;28;19920;-74
2024/01/12 10:03:06;;;;;;;;;;;25.00;30.50;;;;;;5036030;28;19924;-69
2024/01/12 10:05:32;;;;;;;;;;;25.10;30.70;;;;;;5045027;28;19938;-76
2024/01/12 10:07:58;;;;;;;;;;;25.20;30.90;;;;;;5044348;28;19920;-74
2024/01/12 10:10:23;;;;;;;;;;;25.40;30.70;;;;;;5061080;28;19974;-72
2024/01/12 10:12:49;;;;;;;;;;;25.80;30.60;;;;;;5045474;28;20450;-73
2024/01/12 10:15:15;;;;;;;;;;;25.90;30.30;;;;;;5064472;28;19920;-74
2024/01/12 10:17:40;;;;;;;;;;;25.90;30.40;;;;;;5076500;28;19923;-74
2024/01/12 10:20:06;;;;;;;;;;;25.90;30.40;;;;;;5076329;28;19920;-73
2024/01/12 10:22:32;;;;;;;;;;;26.00;30.50;;;;;;5044899;28;19917;-73
2024/01/12 10:24:58;;;;;;;;;;;26.20;30.50;;;;;;5044989;28;19920;-72
2024/01/12 10:27:24;;;;;;;;;;;26.20;30.20;;;;;;5038537;28;19982;-73
2024/01/12 10:29:50;;;;;;;;;;;26.10;30.20;;;;;;5035708;28;20387;-70
2024/01/12 10:32:19;;;;;;;;;;;26.00;30.30;;;;;;5036428;28;19929;-70
2024/01/12 10:34:46;;;;;;;;;;;25.90;30.50;;;;;;5059611;28;20279;-71
2024/01/12 10:37:13;;;;;;;;;;;25.80;30.50;;;;;;5042531;28;19967;-71
2024/01/12 10:39:39;;;;;;;;;;;25.70;30.60;;;;;;5074528;28;19978;-71
2024/01/12 10:42:07;;;;;;;;;;;25.70;30.80;;;;;;5061415;28;19928;-73
2024/01/12 10:44:34;;;;;;;;;;;25.70;30.90;;;;;;5042452;28;20426;-70
2024/01/12 10:47:04;;;;;;;;;;;25.70;31.00;;;;;;5077021;28;20122;-72
2024/01/12 10:49:29;;;;;;;;;;;25.70;31.10;;;;;;5038133;28;19924;-67
2024/01/12 10:52:13;;;;;;;;;;;25.70;31.10;;;;;;5062628;28;19928;-72
2024/01/12 10:55:02;;;;;;;;;;;25.60;31.10;;;;;;5083443;28;20243;-70
2024/01/12 10:57:28;;;;;;;;;;;25.60;31.20;;;;;;5078441;28;20324;-72
2024/01/12 10:59:58;;;;;;;;;;;25.70;31.20;;;;;;5080164;28;20342;-70
2024/01/12 11:02:24;;;;;;;;;;;25.70;31.40;;;;;;5082109;28;19942;-70
2024/01/12 11:04:50;;;;;;;;;;;25.70;31.40;;;;;;5082167;28;20017;-71
2024/01/12 11:07:19;;;;;;;;;;;25.80;31.20;;;;;;5062100;28;19927;-70
2024/01/12 11:09:44;;;;;;;;;;;25.90;31.50;;;;;;5084725;28;20338;-70
2024/01/12 11:12:14;;;;;;;;;;;25.90;31.40;;;;;;5098188;28;20203;-70
2024/01/12 11:14:40;;;;;;;;;;;26.00;31.40;;;;;;5082272;28;20460;-72
2024/01/12 11:17:06;;;;;;;;;;;26.00;31.10;;;;;;5067506;28;19989;-71
2024/01/12 11:19:32;;;;;;;;;;;25.90;31.10;;;;;;5067062;28;20329;-73
2024/01/12 11:22:02;;;;;;;;;;;25.60;31.30;;;;;;5066980;28;19916;-70
2024/01/12 11:24:28;;;;;;;;;;;25.40;31.40;;;;;;5084911;28;20015;-70
2024/01/12 11:26:53;;;;;;;;;;;25.10;31.80;;;;;;5069041;28;20327;-71
2024/01/12 11:29:19;;;;;;;;;;;24.90;32.00;;;;;;5066687;28;20010;-70
2024/01/12 11:31:48;;;;;;;;;;;24.70;32.30;;;;;;5068277;28;20391;-70
2024/01/12 11:34:16;;;;;;;;;;;24.60;32.50;;;;;;5068687;28;19935;-70
2024/01/12 11:36:41;;;;;;;;;;;24.50;32.70;;;;;;5097814;28;19976;-70
2024/01/12 11:39:10;;;;;;;;;;;24.50;32.60;;;;;;5069641;28;20027;-70
2024/01/12 11:41:36;;;;;;;;;;;24.50;32.50;;;;;;5058579;28;20578;-71
2024/01/12 11:44:01;;;;;;;;;;;24.50;32.50;;;;;;5087655;28;19967;-70
2024/01/12 11:46:29;;;;;;;;;;;24.50;32.60;;;;;;5068051;28;20303;-70
2024/01/12 11:48:54;;;;;;;;;;;24.60;32.50;;;;;;5068137;28;20637;-70
2024/01/12 11:51:21;;;;;;;;;;;24.90;32.50;;;;;;5087295;28;19979;-70
2024/01/12 11:53:49;;;;;;;;;;;25.10;32.10;;;;;;5069440;28;21299;-70
2024/01/12 11:56:15;;;;;;;;;;;25.40;31.90;;;;;;5088413;28;20011;-69
2024/01/12 11:58:40;;;;;;;;;;;25.60;32.10;;;;;;5072343;28;20018;-69
2024/01/12 12:01:07;;;;;;;;;;;25.90;31.70;;;;;;5070550;28;20582;-71
2024/01/12 12:03:33;;;;;;;;;;;26.10;32.40;;;;;;5070395;28;19924;-70
2024/01/12 12:05:59;;;;;;;;;;;26.10;31.30;;;;;;5101781;28;19927;-67
2024/01/12 12:08:25;;;;;;;;;;;26.10;31.30;;;;;;5068857;28;19938;-70
2024/01/12 12:10:50;;;;;;;;;;;26.00;31.20;;;;;;5087744;28;20018;-69
2024/01/12 12:13:16;;;;;;;;;;;25.90;31.40;;;;;;5087930;28;19938;-70
2024/01/12 12:15:41;;;;;;;;;;;25.70;31.70;;;;;;5089333;28;19926;-70
2024/01/12 12:18:07;;;;;;;;;;;25.60;31.80;;;;;;5104793;28;20329;-71
2024/01/12 12:20:33;;;;;;;;;;;25.40;32.00;;;;;;5088709;28;19920;-70
2024/01/12 12:22:58;;;;;;;;;;;25.20;32.30;;;;;;5070565;28;19973;-68
2024/01/12 12:25:25;;;;;;;;;;;25.00;32.50;;;;;;5070167;28;19924;-71
2024/01/12 12:27:51;;;;;;;;;;;24.80;32.70;;;;;;5078117;28;19924;-71
2024/01/12 12:30:17;;;;;;;;;;;24.70;33.00;;;;;;5055152;28;19928;-71
2024/01/12 12:32:43;;;;;;;;;;;24.50;33.30;;;;;;5077877;28;20395;-71
2024/01/12 12:35:17;;;;;;;;;;;24.30;33.40;;;;;;5079522;28;19929;-72
2024/01/12 12:37:43;;;;;;;;;;;24.10;33.50;;;;;;5058359;28;19923;-71
2024/01/12 12:40:11;;;;;;;;;;;23.90;33.80;;;;;;5057531;28;20354;-70
2024/01/12 12:42:38;;;;;;;;;;;23.70;34.10;;;;;;5080301;28;19928;-69
2024/01/12 12:45:05;;;;;;;;;;;23.50;34.30;;;;;;5080284;28;19924;-72
2024/01/12 12:47:32;;;;;;;;;;;23.30;34.60;;;;;;5061705;28;20050;-68
2024/01/12 12:49:58;;;;;;;;;;;23.20;34.90;;;;;;5065467;28;19928;-70
2024/01/12 12:52:24;;;;;;;;;;;23.00;35.00;;;;;;5064566;28;20641;-69
2024/01/12 12:54:49;;;;;;;;;;;22.90;35.30;;;;;;5083432;28;20459;-70
2024/01/12 12:57:15;;;;;;;;;;;22.80;35.40;;;;;;5069459;28;19920;-69
2024/01/12 12:59:40;;;;;;;;;;;22.60;35.80;;;;;;5065183;28;19924;-71
2024/01/12 13:02:06;;;;;;;;;;;22.60;35.80;;;;;;5075752;28;19927;-71
2024/01/12 13:04:32;;;;;;;;;;;22.50;36.00;;;;;;5066622;28;19931;-71
2024/01/12 13:06:57;;;;;;;;;;;22.40;36.10;;;;;;5068720;28;19920;-71
2024/01/12 13:09:23;;;;;;;;;;;22.40;36.20;;;;;;5080441;28;20151;-72
2024/01/12 13:11:49;;;;;;;;;;;22.30;36.30;;;;;;5079577;28;19920;-70
2024/01/12 13:14:17;;;;;;;;;;;22.20;36.40;;;;;;5059012;28;19963;-71
2024/01/12 13:16:43;;;;;;;;;;;22.10;36.40;;;;;;5099786;28;19931;-72
2024/01/12 13:19:09;;;;;;;;;;;22.10;36.60;;;;;;5099830;28;20383;-71
2024/01/12 13:21:34;;;;;;;;;;;22.00;36.70;;;;;;5097263;28;20354;-72
2024/01/12 13:24:00;;;;;;;;;;;22.00;36.90;;;;;;5066388;28;20461;-71
2024/01/12 13:26:26;;;;;;;;;;;21.90;36.90;;;;;;5087648;28;19945;-70
2024/01/12 13:28:53;;;;;;;;;;;21.90;37.00;;;;;;5067346;28;19920;-71
2024/01/12 13:31:19;;;;;;;;;;;21.80;37.20;;;;;;5100689;28;19920;-71
2024/01/12 13:33:45;;;;;;;;;;;21.80;37.10;;;;;;5065400;28;20398;-69
2024/01/12 13:36:11;;;;;;;;;;;21.90;37.20;;;;;;5069421;28;19928;-69
2024/01/12 13:38:37;;;;;;;;;;;22.10;37.10;;;;;;5068142;28;19932;-70
2024/01/12 13:41:02;;;;;;;;;;;22.30;36.90;;;;;;5066924;28;19921;-71
2024/01/12 13:43:28;;;;;;;;;;;22.50;36.50;;;;;;5087189;28;19931;-74
2024/01/12 13:45:53;;;;;;;;;;;22.70;36.30;;;;;;5083414;28;19954;-72
2024/01/12 13:48:19;;;;;;;;;;;22.80;36.00;;;;;;5100160;28;19928;-72
2024/01/12 13:50:45;;;;;;;;;;;22.90;35.80;;;;;;5087697;28;19931;-71
2024/01/12 13:53:10;;;;;;;;;;;22.90;35.80;;;;;;5064531;28;20454;-73
2024/01/12 13:55:37;;;;;;;;;;;22.90;35.80;;;;;;5064414;28;19927;-73
2024/01/12 13:58:02;;;;;;;;;;;22.90;35.80;;;;;;5068252;28;20228;-73
2024/01/12 14:00:28;;;;;;;;;;;23.00;35.80;;;;;;5052481;28;19921;-69
2024/01/12 14:02:53;;;;;;;;;;;23.00;35.70;;;;;;5067763;28;19927;-73
2024/01/12 14:05:19;;;;;;;;;;;23.00;35.60;;;;;;5101170;28;19927;-73
2024/01/12 14:07:44;;;;;;;;;;;23.10;35.50;;;;;;5087626;28;19931;-73
2024/01/12 14:10:11;;;;;;;;;;;23.20;35.40;;;;;;5089983;28;19920;-73